createdAt,value
2022-09-05T00:00:59.460Z,80.69
2022-09-05T00:03:45.055Z,80.88
2022-09-05T00:06:14.767Z,81.13
2022-09-05T00:08:55.030Z,81.12
2022-09-05T00:11:40.457Z,81.22
2022-09-05T00:15:14.391Z,81.23
2022-09-05T00:17:27.824Z,81.37
2022-09-05T00:24:24.864Z,81.67
2022-09-05T00:24:28.081Z,81.38
2022-09-05T00:26:20.230Z,81.80
2022-09-05T00:29:04.571Z,81.72
2022-09-05T00:31:58.123Z,81.79
2022-09-05T00:34:58.769Z,81.87
2022-09-05T00:37:46.631Z,81.91
2022-09-05T00:40:36.488Z,81.94
2022-09-05T00:43:09.985Z,82.02
2022-09-05T00:45:43.890Z,82.06
2022-09-05T00:48:25.581Z,81.94
2022-09-05T00:51:17.103Z,82.06
2022-09-05T00:53:56.508Z,82.09
2022-09-05T00:56:45.623Z,82.07
2022-09-05T00:59:31.290Z,82.02
2022-09-05T01:02:20.068Z,82.03
2022-09-05T01:05:06.141Z,82.00
2022-09-05T01:07:46.498Z,82.05
2022-09-05T01:10:49.086Z,82.12
2022-09-05T01:13:44.506Z,82.12
2022-09-05T01:16:29.045Z,82.04
2022-09-05T01:19:16.008Z,81.94
2022-09-05T01:22:17.327Z,81.97
2022-09-05T01:25:03.007Z,81.86
2022-09-05T01:29:13.364Z,81.94
2022-09-05T01:31:11.751Z,82.08
2022-09-05T01:34:04.809Z,81.89
2022-09-05T01:36:45.888Z,82.04
2022-09-05T01:40:11.660Z,82.04
2022-09-05T01:42:30.166Z,81.93
2022-09-05T01:45:26.082Z,81.98
2022-09-05T01:48:29.877Z,81.93
2022-09-05T01:51:33.998Z,81.85
2022-09-05T01:54:24.010Z,81.85
2022-09-05T01:57:06.103Z,81.79
2022-09-05T02:00:00.686Z,81.93
2022-09-05T02:02:40.597Z,81.89
2022-09-05T02:05:49.184Z,81.79
2022-09-05T02:08:15.684Z,81.92
2022-09-05T02:10:44.974Z,81.97
2022-09-05T02:13:30.560Z,81.97
2022-09-05T02:16:18.950Z,81.85
2022-09-05T02:18:52.302Z,82.00
2022-09-05T02:21:38.303Z,82.00
2022-09-05T02:24:28.486Z,81.80
2022-09-05T02:27:04.049Z,81.84
2022-09-05T02:29:36.589Z,81.67
2022-09-05T02:32:27.924Z,81.68
2022-09-05T02:35:25.591Z,81.52
2022-09-05T02:40:18.947Z,81.51
2022-09-05T02:45:07.591Z,81.48
2022-09-05T02:45:17.334Z,81.51
2022-09-05T02:46:46.300Z,81.42
2022-09-05T02:50:16.876Z,81.38
2022-09-05T02:57:27.929Z,81.35
2022-09-05T02:57:43.077Z,81.28
2022-09-05T02:58:06.215Z,81.28
2022-09-05T03:00:58.896Z,81.26
2022-09-05T03:03:51.461Z,81.43
2022-09-05T03:06:34.270Z,81.27
2022-09-05T03:09:17.502Z,81.30
2022-09-05T03:12:34.132Z,81.54
2022-09-05T03:15:22.109Z,81.36
2022-09-05T03:18:27.208Z,81.42
2022-09-05T03:21:26.946Z,81.41
2022-09-05T03:24:08.927Z,81.59
2022-09-05T03:27:00.766Z,81.46
2022-09-05T03:30:05.101Z,81.60
2022-09-05T03:32:42.766Z,81.57
2022-09-05T03:35:31.320Z,81.75
2022-09-05T03:38:12.805Z,81.67
2022-09-05T03:41:19.706Z,81.70
2022-09-05T03:44:01.296Z,81.87
2022-09-05T03:46:40.810Z,81.85
2022-09-05T03:49:22.961Z,81.77
2022-09-05T03:57:11.961Z,82.00
2022-09-05T03:57:26.943Z,81.85
2022-09-05T03:59:02.755Z,81.97
2022-09-05T04:04:54.937Z,81.88
2022-09-05T04:08:16.280Z,81.79
2022-09-05T04:08:16.627Z,81.87
2022-09-05T04:10:52.304Z,81.73
2022-09-05T04:13:38.546Z,81.72
2022-09-05T04:16:21.886Z,81.61
2022-09-05T04:19:33.665Z,81.75
2022-09-05T04:22:16.687Z,81.60
2022-09-05T04:25:12.810Z,81.70
2022-09-05T04:28:34.953Z,81.73
2022-09-05T04:31:17.187Z,81.56
2022-09-05T04:33:59.267Z,81.63
2022-09-05T04:36:28.667Z,81.63
2022-09-05T04:39:16.901Z,81.76
2022-09-05T04:42:04.836Z,81.72
2022-09-05T04:44:43.273Z,81.65
2022-09-05T04:47:18.387Z,81.68
2022-09-05T04:50:10.536Z,81.58
2022-09-05T04:53:01.750Z,81.54
2022-09-05T04:55:40.866Z,81.63
2022-09-05T04:58:22.817Z,81.62
2022-09-05T05:06:03.734Z,81.79
2022-09-05T05:06:12.239Z,81.69
2022-09-05T05:07:18.507Z,81.66
2022-09-05T05:09:51.630Z,81.77
2022-09-05T05:18:00.362Z,81.62
2022-09-05T05:18:11.478Z,81.62
2022-09-05T05:18:42.759Z,81.43
2022-09-05T05:21:17.309Z,81.25
2022-09-05T05:23:56.126Z,81.19
2022-09-05T05:26:30.226Z,81.09
2022-09-05T05:29:10.136Z,80.82
2022-09-05T05:31:40.902Z,80.68
2022-09-05T05:34:23.986Z,80.49
2022-09-05T05:37:19.541Z,80.33
2022-09-05T05:39:50.845Z,80.28
2022-09-05T05:42:25.722Z,80.13
2022-09-05T05:44:54.617Z,79.88
2022-09-05T05:47:28.321Z,79.94
2022-09-05T05:50:19.546Z,79.69
2022-09-05T05:53:10.540Z,79.41
2022-09-05T05:56:28.278Z,79.04
2022-09-05T05:59:10.790Z,78.96
2022-09-05T06:01:58.602Z,78.64
2022-09-05T06:05:04.137Z,78.38
2022-09-05T06:09:09.334Z,77.98
2022-09-05T06:14:51.436Z,77.83
2022-09-05T06:15:09.035Z,77.67
2022-09-05T06:16:52.137Z,77.43
2022-09-05T06:19:19.115Z,77.40
2022-09-05T06:22:13.824Z,77.38
2022-09-05T06:24:53.749Z,77.06
2022-09-05T06:28:17.287Z,76.70
2022-09-05T06:31:30.918Z,76.50
2022-09-05T06:34:04.025Z,76.39
2022-09-05T06:36:38.186Z,76.08
2022-09-05T06:39:27.887Z,75.95
2022-09-05T06:42:43.030Z,75.35
2022-09-05T06:45:42.404Z,75.00
2022-09-05T06:48:45.028Z,74.26
2022-09-05T06:51:45.071Z,73.61
2022-09-05T06:54:32.267Z,73.36
2022-09-05T06:57:06.566Z,72.63
2022-09-05T06:59:39.471Z,72.14
2022-09-05T07:02:58.070Z,71.78
2022-09-05T07:05:39.863Z,71.52
2022-09-05T07:08:47.937Z,71.16
2022-09-05T07:11:40.417Z,70.81
2022-09-05T07:14:22.449Z,70.56
2022-09-05T07:16:59.333Z,70.37
2022-09-05T07:19:34.005Z,70.22
2022-09-05T07:22:46.927Z,70.09
2022-09-05T07:25:18.040Z,69.79
2022-09-05T07:28:28.725Z,69.56
2022-09-05T07:31:04.447Z,69.39
2022-09-05T07:33:31.588Z,68.88
2022-09-05T07:36:06.541Z,68.44
2022-09-05T07:38:52.040Z,67.80
2022-09-05T07:41:27.803Z,67.47
2022-09-05T07:44:18.090Z,67.27
2022-09-05T07:46:55.956Z,66.52
2022-09-05T07:49:26.976Z,66.02
2022-09-05T07:56:46.834Z,65.04
2022-09-05T07:57:02.366Z,64.27
2022-09-05T07:57:47.127Z,64.54
2022-09-05T08:00:26.232Z,64.72
2022-09-05T08:02:57.897Z,63.73
2022-09-05T08:05:35.046Z,63.37
2022-09-05T08:08:08.414Z,63.41
2022-09-05T08:11:24.966Z,62.74
2022-09-05T08:13:46.606Z,62.48
2022-09-05T08:16:16.988Z,62.19
2022-09-05T08:19:24.837Z,61.94
2022-09-05T08:21:52.292Z,61.77
2022-09-05T08:24:28.679Z,61.42
2022-09-05T08:27:04.511Z,61.63
2022-09-05T08:29:37.756Z,61.83
2022-09-05T08:32:08.231Z,61.05
2022-09-05T08:34:54.949Z,61.45
2022-09-05T08:37:23.390Z,61.76
2022-09-05T08:40:10.074Z,60.80
2022-09-05T08:44:02.711Z,60.53
2022-09-05T08:46:41.511Z,61.43
2022-09-05T08:48:36.508Z,61.25
2022-09-05T08:51:41.307Z,60.72
2022-09-05T08:54:43.435Z,60.35
2022-09-05T08:57:33.075Z,59.96
2022-09-05T09:00:20.508Z,60.18
2022-09-05T09:03:07.135Z,59.81
2022-09-05T09:06:14.354Z,59.50
2022-09-05T09:09:14.107Z,59.43
2022-09-05T09:11:53.306Z,59.57
2022-09-05T09:14:37.878Z,59.48
2022-09-05T09:17:32.289Z,59.00
2022-09-05T09:20:17.277Z,59.16
2022-09-05T09:23:01.452Z,58.44
2022-09-05T09:25:39.274Z,58.04
2022-09-05T09:28:49.488Z,57.48
2022-09-05T09:31:37.811Z,57.16
2022-09-05T09:34:36.693Z,57.25
2022-09-05T09:37:51.669Z,57.76
2022-09-05T09:40:26.080Z,56.48
2022-09-05T09:43:28.264Z,55.05
2022-09-05T09:46:09.992Z,55.59
2022-09-05T09:48:52.886Z,54.87
2022-09-05T09:51:36.234Z,54.73
2022-09-05T09:54:50.946Z,55.85
2022-09-05T09:57:39.624Z,54.82
2022-09-05T10:00:12.116Z,54.87
2022-09-05T10:05:04.241Z,54.24
2022-09-05T10:10:44.210Z,54.36
2022-09-05T10:10:58.217Z,52.05
2022-09-05T10:12:42.517Z,50.93
2022-09-05T10:15:31.547Z,51.09
2022-09-05T10:18:24.807Z,50.99
2022-09-05T10:21:15.467Z,50.92
2022-09-05T10:24:26.125Z,49.97
2022-09-05T10:26:52.846Z,49.48
2022-09-05T10:29:38.852Z,49.26
2022-09-05T10:34:39.449Z,49.32
2022-09-05T10:35:14.463Z,49.40
2022-09-05T10:38:10.212Z,48.41
2022-09-05T10:41:09.734Z,48.97
2022-09-05T10:43:32.133Z,48.68
2022-09-05T10:46:06.652Z,49.31
2022-09-05T10:48:52.944Z,49.08
2022-09-05T10:51:29.429Z,48.94
2022-09-05T10:53:59.466Z,48.14
2022-09-05T10:56:32.152Z,48.29
2022-09-05T11:01:10.393Z,48.17
2022-09-05T11:02:27.828Z,47.82
2022-09-05T11:05:16.031Z,47.60
2022-09-05T11:08:16.621Z,46.84
2022-09-05T11:11:20.701Z,46.99
2022-09-05T11:14:07.023Z,47.55
2022-09-05T11:16:50.652Z,47.72
2022-09-05T11:19:39.565Z,48.23
2022-09-05T11:22:22.210Z,47.72
2022-09-05T11:24:56.679Z,47.22
2022-09-05T11:27:32.700Z,47.37
2022-09-05T11:30:28.709Z,47.01
2022-09-05T11:39:48.084Z,47.14
2022-09-05T11:39:51.881Z,48.15
2022-09-05T11:40:02.215Z,47.03
2022-09-05T11:42:50.496Z,47.99
2022-09-05T11:45:49.725Z,47.82
2022-09-05T11:48:31.985Z,48.27
2022-09-05T11:51:36.201Z,47.91
2022-09-05T11:54:20.760Z,48.09
2022-09-05T11:57:32.826Z,47.48
2022-09-05T12:00:31.092Z,47.39
2022-09-05T12:03:59.416Z,46.53
2022-09-05T12:06:33.275Z,46.62
2022-09-05T12:09:27.902Z,47.13
2022-09-05T12:11:57.424Z,47.09
2022-09-05T12:14:44.145Z,46.34
2022-09-05T12:17:53.005Z,45.84
2022-09-05T12:20:43.663Z,45.85
2022-09-05T12:23:31.230Z,46.11
2022-09-05T12:27:41.240Z,45.33
2022-09-05T12:29:29.159Z,45.03
2022-09-05T12:33:39.379Z,44.61
2022-09-05T12:36:07.377Z,44.55
2022-09-05T12:40:55.706Z,44.86
2022-09-05T12:41:43.500Z,44.49
2022-09-05T12:44:41.824Z,44.79
2022-09-05T12:47:16.764Z,44.85
2022-09-05T12:50:02.993Z,44.67
2022-09-05T12:52:46.928Z,44.89
2022-09-05T12:55:16.968Z,44.95
2022-09-05T13:02:58.701Z,44.91
2022-09-05T13:03:11.725Z,45.19
2022-09-05T13:03:31.255Z,44.72
2022-09-05T13:05:59.342Z,44.90
2022-09-05T13:08:39.728Z,44.99
2022-09-05T13:14:47.883Z,45.05
2022-09-05T13:14:54.431Z,44.68
2022-09-05T13:16:53.986Z,44.24
2022-09-05T13:19:40.046Z,44.37
2022-09-05T13:22:09.795Z,43.98
2022-09-05T13:24:41.124Z,43.90
2022-09-05T13:27:31.519Z,44.26
2022-09-05T13:31:40.753Z,44.39
2022-09-05T13:38:12.699Z,44.02
2022-09-05T13:38:15.759Z,44.41
2022-09-05T13:39:09.438Z,44.33
2022-09-05T13:41:48.922Z,43.95
2022-09-05T13:44:25.559Z,43.49
2022-09-05T13:47:29.070Z,43.22
2022-09-05T13:50:22.899Z,43.50
2022-09-05T13:52:54.655Z,43.46
2022-09-05T13:55:42.276Z,43.42
2022-09-05T13:58:11.345Z,43.19
2022-09-05T14:00:38.623Z,43.52
2022-09-05T14:03:38.966Z,43.22
2022-09-05T14:06:47.183Z,43.28
2022-09-05T14:09:41.598Z,43.16
2022-09-05T14:12:28.955Z,43.05
2022-09-05T14:15:18.744Z,43.19
2022-09-05T14:17:57.852Z,43.05
2022-09-05T14:20:49.630Z,43.12
2022-09-05T14:23:18.708Z,43.55
2022-09-05T14:25:53.104Z,43.89
2022-09-05T14:28:35.746Z,43.81
2022-09-05T14:34:30.923Z,43.81
2022-09-05T14:37:49.006Z,43.78
2022-09-05T14:38:04.408Z,43.73
2022-09-05T14:40:50.361Z,44.02
2022-09-05T14:43:32.237Z,44.22
2022-09-05T14:46:36.252Z,43.77
2022-09-05T14:49:18.690Z,44.06
2022-09-05T14:51:49.801Z,43.96
2022-09-05T15:02:43.842Z,44.44
2022-09-05T15:02:44.275Z,44.10
2022-09-05T15:06:33.007Z,44.28
2022-09-05T15:11:25.482Z,44.37
2022-09-05T15:12:21.744Z,44.76
2022-09-05T15:14:38.281Z,44.87
2022-09-05T15:17:05.935Z,45.03
2022-09-05T15:20:07.743Z,45.10
2022-09-05T15:22:37.633Z,44.98
2022-09-05T15:25:17.523Z,44.89
2022-09-05T15:27:46.806Z,44.92
2022-09-05T15:30:22.523Z,44.59
2022-09-05T15:33:11.103Z,44.78
2022-09-05T15:35:42.025Z,44.84
2022-09-05T15:38:22.532Z,44.42
2022-09-05T15:41:19.318Z,44.86
2022-09-05T15:43:59.891Z,44.98
2022-09-05T15:46:59.254Z,44.44
2022-09-05T15:49:25.726Z,44.24
2022-09-05T15:51:56.439Z,44.31
2022-09-05T15:54:37.612Z,44.29
2022-09-05T15:57:08.608Z,44.61
2022-09-05T15:59:46.917Z,45.12
2022-09-05T16:02:25.960Z,45.06
2022-09-05T16:08:55.498Z,45.49
2022-09-05T16:10:43.753Z,45.48
2022-09-05T16:11:21.251Z,45.76
2022-09-05T16:13:53.122Z,45.97
2022-09-05T16:20:48.296Z,46.23
2022-09-05T16:23:17.445Z,46.15
2022-09-05T16:23:23.410Z,46.20
2022-09-05T16:25:24.434Z,46.33
2022-09-05T16:27:59.245Z,46.71
2022-09-05T16:30:27.535Z,46.64
2022-09-05T16:32:58.597Z,46.95
2022-09-05T16:35:26.742Z,47.10
2022-09-05T16:37:55.645Z,47.09
2022-09-05T16:40:31.191Z,47.49
2022-09-05T16:43:20.655Z,47.49
2022-09-05T16:45:57.519Z,47.61
2022-09-05T16:48:30.161Z,47.70
2022-09-05T16:51:05.767Z,48.02
2022-09-05T16:53:59.063Z,48.46
2022-09-05T16:56:48.085Z,48.34
2022-09-05T16:59:20.451Z,48.65
2022-09-05T17:02:15.152Z,48.83
2022-09-05T17:05:04.551Z,49.04
2022-09-05T17:07:55.450Z,49.23
2022-09-05T17:10:50.778Z,49.47
2022-09-05T17:13:46.871Z,49.69
2022-09-05T17:16:20.646Z,49.91
2022-09-05T17:18:50.852Z,50.17
2022-09-05T17:21:55.651Z,50.38
2022-09-05T17:29:18.221Z,50.65
2022-09-05T17:29:38.124Z,51.05
2022-09-05T17:31:47.411Z,51.45
2022-09-05T17:33:00.522Z,51.80
2022-09-05T17:35:48.046Z,52.21
2022-09-05T17:38:20.113Z,52.29
2022-09-05T17:41:08.040Z,52.40
2022-09-05T17:43:41.058Z,52.68
2022-09-05T17:46:26.310Z,52.57
2022-09-05T17:49:17.682Z,52.87
2022-09-05T17:51:51.861Z,53.14
2022-09-05T17:54:33.445Z,53.30
2022-09-05T17:57:28.225Z,53.39
2022-09-05T18:00:02.313Z,53.28
2022-09-05T18:02:54.593Z,53.47
2022-09-05T18:05:59.675Z,53.71
2022-09-05T18:08:44.823Z,54.15
2022-09-05T18:11:17.972Z,54.34
2022-09-05T18:13:59.898Z,54.52
2022-09-05T18:16:32.564Z,54.73
2022-09-05T18:22:11.721Z,55.03
2022-09-05T18:24:47.679Z,55.09
2022-09-05T18:30:18.012Z,55.42
2022-09-05T18:33:53.727Z,55.69
2022-09-05T18:35:50.972Z,55.71
2022-09-05T18:38:50.106Z,56.00
2022-09-05T18:41:23.009Z,56.08
2022-09-05T18:44:13.119Z,56.35
2022-09-05T18:46:49.598Z,56.58
2022-09-05T18:50:23.797Z,56.82
2022-09-05T18:52:23.716Z,57.12
2022-09-05T18:55:30.161Z,57.36
2022-09-05T18:57:49.545Z,57.44
2022-09-05T19:00:46.654Z,57.57
2022-09-05T19:03:24.986Z,57.73
2022-09-05T19:05:53.571Z,57.81
2022-09-05T19:08:29.154Z,57.96
2022-09-05T19:11:01.669Z,58.00
2022-09-05T19:13:50.031Z,58.02
2022-09-05T19:16:43.281Z,57.97
2022-09-05T19:19:18.668Z,58.12
2022-09-05T19:21:57.145Z,58.01
2022-09-05T19:24:44.816Z,58.15
2022-09-05T19:29:45.841Z,58.30
2022-09-05T19:36:56.709Z,58.35
2022-09-05T19:37:06.833Z,58.55
2022-09-05T19:37:09.789Z,58.52
2022-09-05T19:38:56.682Z,58.65
2022-09-05T19:47:25.670Z,58.62
2022-09-05T19:47:51.216Z,58.68
2022-09-05T19:47:55.936Z,58.66
2022-09-05T19:50:09.002Z,58.57
2022-09-05T19:52:39.501Z,58.51
2022-09-05T19:55:27.784Z,58.53
2022-09-05T19:58:19.259Z,58.49
2022-09-05T20:00:45.991Z,58.46
2022-09-05T20:03:28.872Z,58.51
2022-09-05T20:06:29.188Z,58.41
2022-09-05T20:09:15.406Z,58.40
2022-09-05T20:11:51.151Z,58.45
2022-09-05T20:14:32.649Z,58.38
2022-09-05T20:17:17.108Z,58.33
2022-09-05T20:19:45.266Z,58.42
2022-09-05T20:22:47.245Z,58.43
2022-09-05T20:25:08.815Z,58.65
2022-09-05T20:27:47.369Z,58.68
2022-09-05T20:30:19.730Z,58.76
2022-09-05T20:32:51.857Z,58.85
2022-09-05T20:42:51.272Z,59.03
2022-09-05T20:43:32.824Z,59.16
2022-09-05T20:43:32.826Z,59.22
2022-09-05T20:44:16.700Z,59.31
2022-09-05T20:54:02.289Z,59.40
2022-09-05T20:54:09.333Z,59.54
2022-09-05T20:54:25.371Z,59.60
2022-09-05T20:55:38.331Z,59.66
2022-09-05T20:58:12.048Z,59.65
2022-09-05T21:01:24.348Z,59.80
2022-09-05T21:03:39.749Z,59.72
2022-09-05T21:06:29.324Z,59.73
2022-09-05T21:09:14.573Z,59.74
2022-09-05T21:11:42.967Z,59.63
2022-09-05T21:14:10.790Z,59.67
2022-09-05T21:16:44.495Z,59.66
2022-09-05T21:19:32.378Z,59.60
2022-09-05T21:22:20.409Z,59.48
2022-09-05T21:24:47.227Z,59.48
2022-09-05T21:27:17.951Z,59.43
2022-09-05T21:29:46.924Z,59.46
2022-09-05T21:32:23.027Z,59.44
2022-09-05T21:34:53.567Z,59.44
2022-09-05T21:37:20.907Z,59.56
2022-09-05T21:39:59.822Z,59.58
2022-09-05T21:47:33.747Z,59.47
2022-09-05T21:47:41.944Z,59.42
2022-09-05T21:48:16.513Z,59.44
2022-09-05T21:50:51.913Z,59.35
2022-09-05T21:59:13.635Z,59.39
2022-09-05T21:59:21.157Z,59.39
2022-09-05T22:02:08.107Z,59.48
2022-09-05T22:04:41.056Z,59.46
2022-09-05T22:07:13.902Z,59.38
2022-09-05T22:09:40.588Z,59.40
2022-09-05T22:12:23.158Z,59.57
2022-09-05T22:14:54.137Z,59.62
2022-09-05T22:17:22.206Z,59.58
2022-09-05T22:19:49.752Z,59.61
2022-09-05T22:22:18.112Z,59.71
2022-09-05T22:24:48.763Z,59.74
2022-09-05T22:27:19.600Z,59.65
2022-09-05T22:29:48.979Z,59.70
2022-09-05T22:32:17.679Z,59.82
2022-09-05T22:34:55.407Z,59.93
2022-09-05T22:37:22.123Z,59.84
2022-09-05T22:39:48.615Z,59.96
2022-09-05T22:42:15.306Z,59.97
2022-09-05T22:44:42.041Z,60.13
2022-09-05T22:47:11.494Z,60.08
2022-09-05T22:49:38.070Z,60.11
2022-09-05T22:52:06.504Z,59.87
2022-09-05T22:54:34.128Z,60.07
2022-09-05T22:57:01.786Z,60.10
2022-09-05T22:59:28.219Z,60.10
2022-09-05T23:01:54.667Z,60.21
2022-09-05T23:04:21.914Z,60.08
2022-09-05T23:06:48.546Z,59.89
2022-09-05T23:09:15.167Z,59.79
2022-09-05T23:11:41.804Z,59.72
2022-09-05T23:14:08.238Z,59.72
2022-09-05T23:16:34.885Z,59.51
2022-09-05T23:19:01.624Z,59.49
2022-09-05T23:21:28.153Z,59.41
2022-09-05T23:23:54.589Z,59.42
2022-09-05T23:26:22.048Z,59.32
2022-09-05T23:28:49.005Z,59.41
2022-09-05T23:31:15.812Z,59.46
2022-09-05T23:33:43.305Z,59.40
2022-09-05T23:36:13.374Z,59.37
2022-09-05T23:38:43.545Z,59.41
2022-09-05T23:41:12.822Z,59.43
2022-09-05T23:43:39.265Z,59.43
2022-09-05T23:49:47.500Z,59.47
2022-09-05T23:52:14.156Z,59.46
2022-09-05T23:54:40.873Z,59.57
2022-09-05T23:57:07.534Z,59.45
2022-09-05T23:59:34.374Z,59.41
